sensor_id;sensor_type;location;lat;lon;timestamp;P1;durP1;ratioP1;P2;durP2;ratioP2
43042;SDS011;28667;50.758;6.096;2022-12-18T00:01:56;1.77;;;0.60;;
43042;SDS011;28667;50.758;6.096;2022-12-18T00:04:25;0.30;;;0.30;;
43042;SDS011;28667;50.758;6.096;2022-12-18T00:06:51;1.52;;;1.05;;
43042;SDS011;28667;50.758;6.096;2022-12-18T00:09:17;2.13;;;1.25;;
43042;SDS011;28667;50.758;6.096;2022-12-18T00:11:43;1.75;;;1.38;;
43042;SDS011;28667;50.758;6.096;2022-12-18T00:14:10;0.57;;;0.57;;
43042;SDS011;28667;50.758;6.096;2022-12-18T00:16:37;0.90;;;0.90;;
43042;SDS011;28667;50.758;6.096;2022-12-18T00:19:04;0.35;;;0.15;;
43042;SDS011;28667;50.758;6.096;2022-12-18T00:21:30;0.30;;;0.30;;
43042;SDS011;28667;50.758;6.096;2022-12-18T00:23:57;0.77;;;0.17;;
43042;SDS011;28667;50.758;6.096;2022-12-18T00:26:25;0.50;;;0.50;;
43042;SDS011;28667;50.758;6.096;2022-12-18T00:28:59;1.50;;;0.60;;
43042;SDS011;28667;50.758;6.096;2022-12-18T00:31:43;0.55;;;0.43;;
43042;SDS011;28667;50.758;6.096;2022-12-18T00:34:10;0.40;;;0.40;;
43042;SDS011;28667;50.758;6.096;2022-12-18T00:36:39;1.08;;;0.47;;
43042;SDS011;28667;50.758;6.096;2022-12-18T00:39:05;0.98;;;0.75;;
43042;SDS011;28667;50.758;6.096;2022-12-18T00:41:31;1.17;;;0.35;;
43042;SDS011;28667;50.758;6.096;2022-12-18T00:44:16;0.10;;;0.10;;
43042;SDS011;28667;50.758;6.096;2022-12-18T00:46:44;0.22;;;0.22;;
43042;SDS011;28667;50.758;6.096;2022-12-18T00:49:14;0.57;;;0.57;;
43042;SDS011;28667;50.758;6.096;2022-12-18T00:51:41;0.30;;;0.30;;
43042;SDS011;28667;50.758;6.096;2022-12-18T00:54:07;0.88;;;0.50;;
43042;SDS011;28667;50.758;6.096;2022-12-18T00:56:34;1.58;;;0.50;;
43042;SDS011;28667;50.758;6.096;2022-12-18T00:59:02;1.33;;;0.70;;
43042;SDS011;28667;50.758;6.096;2022-12-18T01:01:27;0.52;;;0.32;;
43042;SDS011;28667;50.758;6.096;2022-12-18T01:03:53;0.63;;;0.25;;
43042;SDS011;28667;50.758;6.096;2022-12-18T01:06:22;0.93;;;0.65;;
43042;SDS011;28667;50.758;6.096;2022-12-18T01:08:48;3.00;;;0.40;;
43042;SDS011;28667;50.758;6.096;2022-12-18T01:11:15;0.13;;;0.13;;
43042;SDS011;28667;50.758;6.096;2022-12-18T01:13:43;0.73;;;0.32;;
43042;SDS011;28667;50.758;6.096;2022-12-18T01:16:13;0.38;;;0.28;;
43042;SDS011;28667;50.758;6.096;2022-12-18T01:18:41;2.28;;;0.30;;
43042;SDS011;28667;50.758;6.096;2022-12-18T01:21:08;1.00;;;0.40;;
43042;SDS011;28667;50.758;6.096;2022-12-18T01:23:36;0.28;;;0.28;;
43042;SDS011;28667;50.758;6.096;2022-12-18T01:26:05;0.15;;;0.15;;
43042;SDS011;28667;50.758;6.096;2022-12-18T01:28:34;0.30;;;0.30;;
43042;SDS011;28667;50.758;6.096;2022-12-18T01:33:40;0.35;;;0.25;;
43042;SDS011;28667;50.758;6.096;2022-12-18T01:36:07;0.10;;;0.10;;
43042;SDS011;28667;50.758;6.096;2022-12-18T01:38:34;2.35;;;0.60;;
43042;SDS011;28667;50.758;6.096;2022-12-18T01:41:00;0.70;;;0.70;;
43042;SDS011;28667;50.758;6.096;2022-12-18T01:46:08;0.25;;;0.22;;
43042;SDS011;28667;50.758;6.096;2022-12-18T01:48:34;3.72;;;1.48;;
43042;SDS011;28667;50.758;6.096;2022-12-18T01:51:00;0.43;;;0.43;;
43042;SDS011;28667;50.758;6.096;2022-12-18T01:53:26;1.15;;;1.05;;
43042;SDS011;28667;50.758;6.096;2022-12-18T01:55:53;0.60;;;0.60;;
43042;SDS011;28667;50.758;6.096;2022-12-18T01:58:30;1.25;;;0.70;;
43042;SDS011;28667;50.758;6.096;2022-12-18T02:00:57;0.40;;;0.38;;
43042;SDS011;28667;50.758;6.096;2022-12-18T02:03:23;0.25;;;0.25;;
43042;SDS011;28667;50.758;6.096;2022-12-18T02:05:53;2.38;;;1.05;;
43042;SDS011;28667;50.758;6.096;2022-12-18T02:09:20;4.65;;;2.03;;
43042;SDS011;28667;50.758;6.096;2022-12-18T02:14:34;2.88;;;1.10;;
43042;SDS011;28667;50.758;6.096;2022-12-18T02:17:22;0.35;;;0.35;;
43042;SDS011;28667;50.758;6.096;2022-12-18T02:25:23;0.90;;;0.40;;
43042;SDS011;28667;50.758;6.096;2022-12-18T02:27:51;16.25;;;1.15;;
43042;SDS011;28667;50.758;6.096;2022-12-18T02:30:19;0.75;;;0.65;;
43042;SDS011;28667;50.758;6.096;2022-12-18T02:32:49;0.45;;;0.45;;
43042;SDS011;28667;50.758;6.096;2022-12-18T02:35:22;1.13;;;0.60;;
43042;SDS011;28667;50.758;6.096;2022-12-18T02:37:55;0.60;;;0.60;;
43042;SDS011;28667;50.758;6.096;2022-12-18T02:40:22;0.60;;;0.60;;
43042;SDS011;28667;50.758;6.096;2022-12-18T02:42:50;0.32;;;0.25;;
43042;SDS011;28667;50.758;6.096;2022-12-18T02:45:18;3.20;;;0.73;;
43042;SDS011;28667;50.758;6.096;2022-12-18T02:47:46;0.30;;;0.30;;
43042;SDS011;28667;50.758;6.096;2022-12-18T02:50:19;1.80;;;0.60;;
43042;SDS011;28667;50.758;6.096;2022-12-18T02:53:14;9.63;;;0.47;;
43042;SDS011;28667;50.758;6.096;2022-12-18T03:07:02;1.60;;;0.88;;
43042;SDS011;28667;50.758;6.096;2022-12-18T03:09:38;0.40;;;0.40;;
43042;SDS011;28667;50.758;6.096;2022-12-18T03:12:17;4.50;;;1.05;;
43042;SDS011;28667;50.758;6.096;2022-12-18T03:17:59;0.32;;;0.32;;
43042;SDS011;28667;50.758;6.096;2022-12-18T03:20:31;3.28;;;1.15;;
43042;SDS011;28667;50.758;6.096;2022-12-18T03:23:07;1.00;;;0.50;;
43042;SDS011;28667;50.758;6.096;2022-12-18T03:25:38;0.13;;;0.13;;
43042;SDS011;28667;50.758;6.096;2022-12-18T03:28:07;0.30;;;0.30;;
43042;SDS011;28667;50.758;6.096;2022-12-18T03:30:37;0.50;;;0.50;;
43042;SDS011;28667;50.758;6.096;2022-12-18T03:33:08;1.08;;;0.85;;
43042;SDS011;28667;50.758;6.096;2022-12-18T03:35:42;0.63;;;0.60;;
43042;SDS011;28667;50.758;6.096;2022-12-18T03:38:10;0.40;;;0.40;;
43042;SDS011;28667;50.758;6.096;2022-12-18T03:40:44;0.22;;;0.22;;
43042;SDS011;28667;50.758;6.096;2022-12-18T03:43:43;0.65;;;0.60;;
43042;SDS011;28667;50.758;6.096;2022-12-18T03:46:54;0.38;;;0.38;;
43042;SDS011;28667;50.758;6.096;2022-12-18T03:52:00;0.20;;;0.20;;
43042;SDS011;28667;50.758;6.096;2022-12-18T03:54:29;0.13;;;0.13;;
43042;SDS011;28667;50.758;6.096;2022-12-18T03:57:07;0.85;;;0.65;;
43042;SDS011;28667;50.758;6.096;2022-12-18T03:59:38;0.30;;;0.30;;
43042;SDS011;28667;50.758;6.096;2022-12-18T04:02:06;0.57;;;0.57;;
43042;SDS011;28667;50.758;6.096;2022-12-18T04:04:34;0.30;;;0.30;;
43042;SDS011;28667;50.758;6.096;2022-12-18T04:07:04;3.40;;;1.10;;
43042;SDS011;28667;50.758;6.096;2022-12-18T04:09:33;0.13;;;0.13;;
43042;SDS011;28667;50.758;6.096;2022-12-18T04:12:00;0.20;;;0.20;;
43042;SDS011;28667;50.758;6.096;2022-12-18T04:14:26;0.47;;;0.20;;
43042;SDS011;28667;50.758;6.096;2022-12-18T04:16:54;0.10;;;0.10;;
43042;SDS011;28667;50.758;6.096;2022-12-18T04:19:26;0.82;;;0.35;;
43042;SDS011;28667;50.758;6.096;2022-12-18T04:21:52;4.70;;;0.20;;
43042;SDS011;28667;50.758;6.096;2022-12-18T04:24:19;0.90;;;0.20;;
43042;SDS011;28667;50.758;6.096;2022-12-18T04:26:55;0.20;;;0.20;;
43042;SDS011;28667;50.758;6.096;2022-12-18T04:29:24;0.20;;;0.20;;
43042;SDS011;28667;50.758;6.096;2022-12-18T04:31:49;0.30;;;0.30;;
43042;SDS011;28667;50.758;6.096;2022-12-18T04:34:16;1.45;;;1.27;;
43042;SDS011;28667;50.758;6.096;2022-12-18T04:36:47;1.30;;;0.32;;
43042;SDS011;28667;50.758;6.096;2022-12-18T04:39:14;0.10;;;0.10;;
43042;SDS011;28667;50.758;6.096;2022-12-18T04:41:43;0.63;;;0.60;;
43042;SDS011;28667;50.758;6.096;2022-12-18T04:44:11;1.02;;;0.95;;
43042;SDS011;28667;50.758;6.096;2022-12-18T04:46:37;0.55;;;0.43;;
43042;SDS011;28667;50.758;6.096;2022-12-18T04:49:02;1.10;;;0.47;;
43042;SDS011;28667;50.758;6.096;2022-12-18T04:51:28;1.27;;;0.70;;
43042;SDS011;28667;50.758;6.096;2022-12-18T04:53:54;0.20;;;0.20;;
43042;SDS011;28667;50.758;6.096;2022-12-18T04:56:20;0.52;;;0.30;;
43042;SDS011;28667;50.758;6.096;2022-12-18T04:58:46;2.45;;;1.00;;
43042;SDS011;28667;50.758;6.096;2022-12-18T05:01:12;1.05;;;0.30;;
43042;SDS011;28667;50.758;6.096;2022-12-18T05:03:39;0.75;;;0.55;;
43042;SDS011;28667;50.758;6.096;2022-12-18T05:06:05;0.20;;;0.20;;
43042;SDS011;28667;50.758;6.096;2022-12-18T05:08:31;0.30;;;0.30;;
43042;SDS011;28667;50.758;6.096;2022-12-18T05:11:08;0.82;;;0.82;;
43042;SDS011;28667;50.758;6.096;2022-12-18T05:13:36;0.57;;;0.57;;
43042;SDS011;28667;50.758;6.096;2022-12-18T05:16:03;1.17;;;0.73;;
43042;SDS011;28667;50.758;6.096;2022-12-18T05:18:29;0.57;;;0.47;;
43042;SDS011;28667;50.758;6.096;2022-12-18T05:20:55;0.82;;;0.65;;
43042;SDS011;28667;50.758;6.096;2022-12-18T05:23:21;4.00;;;0.68;;
43042;SDS011;28667;50.758;6.096;2022-12-18T05:25:58;3.53;;;0.40;;
43042;SDS011;28667;50.758;6.096;2022-12-18T05:28:26;11.70;;;0.77;;
43042;SDS011;28667;50.758;6.096;2022-12-18T05:30:56;1.95;;;0.80;;
43042;SDS011;28667;50.758;6.096;2022-12-18T05:33:23;0.77;;;0.77;;
43042;SDS011;28667;50.758;6.096;2022-12-18T05:35:51;1.75;;;1.00;;
43042;SDS011;28667;50.758;6.096;2022-12-18T05:38:27;1.17;;;0.77;;
43042;SDS011;28667;50.758;6.096;2022-12-18T05:40:54;1.17;;;0.47;;
43042;SDS011;28667;50.758;6.096;2022-12-18T05:43:20;7.30;;;1.85;;
43042;SDS011;28667;50.758;6.096;2022-12-18T05:45:47;0.22;;;0.20;;
43042;SDS011;28667;50.758;6.096;2022-12-18T05:48:13;0.73;;;0.47;;
43042;SDS011;28667;50.758;6.096;2022-12-18T05:50:39;0.63;;;0.63;;
43042;SDS011;28667;50.758;6.096;2022-12-18T05:53:06;1.67;;;0.68;;
43042;SDS011;28667;50.758;6.096;2022-12-18T05:55:33;2.15;;;1.17;;
43042;SDS011;28667;50.758;6.096;2022-12-18T05:58:00;1.45;;;1.15;;
43042;SDS011;28667;50.758;6.096;2022-12-18T06:00:26;1.67;;;0.70;;
43042;SDS011;28667;50.758;6.096;2022-12-18T06:02:52;1.70;;;1.05;;
43042;SDS011;28667;50.758;6.096;2022-12-18T06:05:18;1.65;;;1.17;;
43042;SDS011;28667;50.758;6.096;2022-12-18T06:07:43;0.75;;;0.75;;
43042;SDS011;28667;50.758;6.096;2022-12-18T06:10:09;1.30;;;0.73;;
43042;SDS011;28667;50.758;6.096;2022-12-18T06:12:36;0.52;;;0.52;;
43042;SDS011;28667;50.758;6.096;2022-12-18T06:15:02;0.68;;;0.68;;
43042;SDS011;28667;50.758;6.096;2022-12-18T06:17:29;2.08;;;1.05;;
43042;SDS011;28667;50.758;6.096;2022-12-18T06:19:55;0.28;;;0.28;;
43042;SDS011;28667;50.758;6.096;2022-12-18T06:22:21;0.88;;;0.88;;
43042;SDS011;28667;50.758;6.096;2022-12-18T06:24:47;1.30;;;1.20;;
43042;SDS011;28667;50.758;6.096;2022-12-18T06:27:13;0.77;;;0.65;;
43042;SDS011;28667;50.758;6.096;2022-12-18T06:29:38;1.13;;;0.98;;
43042;SDS011;28667;50.758;6.096;2022-12-18T06:32:04;1.55;;;0.80;;
43042;SDS011;28667;50.758;6.096;2022-12-18T06:34:30;1.77;;;1.00;;
43042;SDS011;28667;50.758;6.096;2022-12-18T06:36:55;0.63;;;0.63;;
43042;SDS011;28667;50.758;6.096;2022-12-18T06:39:21;0.77;;;0.60;;
43042;SDS011;28667;50.758;6.096;2022-12-18T06:41:47;0.73;;;0.60;;
43042;SDS011;28667;50.758;6.096;2022-12-18T06:44:12;1.63;;;1.13;;
43042;SDS011;28667;50.758;6.096;2022-12-18T06:46:38;2.65;;;1.13;;
43042;SDS011;28667;50.758;6.096;2022-12-18T06:49:04;5.35;;;0.77;;
43042;SDS011;28667;50.758;6.096;2022-12-18T06:51:29;0.93;;;0.93;;
43042;SDS011;28667;50.758;6.096;2022-12-18T06:53:55;1.08;;;0.77;;
43042;SDS011;28667;50.758;6.096;2022-12-18T06:56:21;2.78;;;1.35;;
43042;SDS011;28667;50.758;6.096;2022-12-18T06:58:47;1.38;;;1.27;;
43042;SDS011;28667;50.758;6.096;2022-12-18T07:01:15;3.90;;;1.40;;
43042;SDS011;28667;50.758;6.096;2022-12-18T07:03:41;0.85;;;0.68;;
43042;SDS011;28667;50.758;6.096;2022-12-18T07:06:14;0.70;;;0.43;;
43042;SDS011;28667;50.758;6.096;2022-12-18T07:08:42;0.77;;;0.40;;
43042;SDS011;28667;50.758;6.096;2022-12-18T07:11:07;0.75;;;0.75;;
43042;SDS011;28667;50.758;6.096;2022-12-18T07:13:33;3.08;;;0.52;;
43042;SDS011;28667;50.758;6.096;2022-12-18T07:16:06;0.80;;;0.60;;
43042;SDS011;28667;50.758;6.096;2022-12-18T07:18:33;0.93;;;0.93;;
43042;SDS011;28667;50.758;6.096;2022-12-18T07:21:02;0.50;;;0.50;;
43042;SDS011;28667;50.758;6.096;2022-12-18T07:23:29;0.73;;;0.70;;
43042;SDS011;28667;50.758;6.096;2022-12-18T07:25:59;0.85;;;0.70;;
43042;SDS011;28667;50.758;6.096;2022-12-18T07:28:27;3.53;;;1.23;;
43042;SDS011;28667;50.758;6.096;2022-12-18T07:30:52;0.75;;;0.75;;
43042;SDS011;28667;50.758;6.096;2022-12-18T07:33:18;0.98;;;0.93;;
43042;SDS011;28667;50.758;6.096;2022-12-18T07:35:44;0.50;;;0.50;;
43042;SDS011;28667;50.758;6.096;2022-12-18T07:38:10;1.55;;;1.38;;
43042;SDS011;28667;50.758;6.096;2022-12-18T07:40:35;1.40;;;0.57;;
43042;SDS011;28667;50.758;6.096;2022-12-18T07:43:01;1.10;;;1.02;;
43042;SDS011;28667;50.758;6.096;2022-12-18T07:45:27;1.10;;;1.00;;
43042;SDS011;28667;50.758;6.096;2022-12-18T07:47:55;3.33;;;1.08;;
43042;SDS011;28667;50.758;6.096;2022-12-18T07:50:21;1.42;;;1.20;;
43042;SDS011;28667;50.758;6.096;2022-12-18T07:52:47;0.40;;;0.40;;
43042;SDS011;28667;50.758;6.096;2022-12-18T07:55:12;0.80;;;0.77;;
43042;SDS011;28667;50.758;6.096;2022-12-18T07:57:38;1.30;;;1.13;;
43042;SDS011;28667;50.758;6.096;2022-12-18T08:00:04;6.28;;;1.25;;
43042;SDS011;28667;50.758;6.096;2022-12-18T08:02:37;0.30;;;0.30;;
43042;SDS011;28667;50.758;6.096;2022-12-18T08:05:03;1.00;;;0.88;;
43042;SDS011;28667;50.758;6.096;2022-12-18T08:07:29;4.78;;;1.45;;
43042;SDS011;28667;50.758;6.096;2022-12-18T08:09:54;1.00;;;0.60;;
43042;SDS011;28667;50.758;6.096;2022-12-18T08:12:20;3.92;;;1.70;;
43042;SDS011;28667;50.758;6.096;2022-12-18T08:14:46;0.85;;;0.70;;
43042;SDS011;28667;50.758;6.096;2022-12-18T08:17:11;1.35;;;1.10;;
43042;SDS011;28667;50.758;6.096;2022-12-18T08:19:37;1.35;;;1.25;;
43042;SDS011;28667;50.758;6.096;2022-12-18T08:22:03;1.02;;;0.88;;
43042;SDS011;28667;50.758;6.096;2022-12-18T08:24:28;1.80;;;1.13;;
43042;SDS011;28667;50.758;6.096;2022-12-18T08:26:54;1.85;;;1.15;;
43042;SDS011;28667;50.758;6.096;2022-12-18T08:29:22;4.00;;;1.80;;
43042;SDS011;28667;50.758;6.096;2022-12-18T08:31:48;0.95;;;0.77;;
43042;SDS011;28667;50.758;6.096;2022-12-18T08:34:13;2.08;;;1.58;;
43042;SDS011;28667;50.758;6.096;2022-12-18T08:36:39;0.38;;;0.38;;
43042;SDS011;28667;50.758;6.096;2022-12-18T08:39:05;1.45;;;1.17;;
43042;SDS011;28667;50.758;6.096;2022-12-18T08:41:31;2.03;;;1.13;;
43042;SDS011;28667;50.758;6.096;2022-12-18T08:43:56;3.00;;;1.00;;
43042;SDS011;28667;50.758;6.096;2022-12-18T08:46:41;1.73;;;1.05;;
43042;SDS011;28667;50.758;6.096;2022-12-18T08:49:08;3.40;;;1.50;;
43042;SDS011;28667;50.758;6.096;2022-12-18T08:51:35;2.10;;;1.17;;
43042;SDS011;28667;50.758;6.096;2022-12-18T08:54:01;3.17;;;1.00;;
43042;SDS011;28667;50.758;6.096;2022-12-18T08:56:27;3.53;;;0.77;;
43042;SDS011;28667;50.758;6.096;2022-12-18T08:58:55;2.28;;;1.20;;
43042;SDS011;28667;50.758;6.096;2022-12-18T09:01:21;0.95;;;0.93;;
43042;SDS011;28667;50.758;6.096;2022-12-18T09:03:48;3.90;;;1.35;;
43042;SDS011;28667;50.758;6.096;2022-12-18T09:06:15;3.97;;;1.08;;
43042;SDS011;28667;50.758;6.096;2022-12-18T09:08:43;9.60;;;2.53;;
43042;SDS011;28667;50.758;6.096;2022-12-18T09:11:18;2.15;;;1.77;;
43042;SDS011;28667;50.758;6.096;2022-12-18T09:13:48;3.58;;;1.70;;
43042;SDS011;28667;50.758;6.096;2022-12-18T09:16:14;2.00;;;1.90;;
43042;SDS011;28667;50.758;6.096;2022-12-18T09:18:40;4.93;;;1.65;;
43042;SDS011;28667;50.758;6.096;2022-12-18T09:21:13;2.05;;;1.55;;
43042;SDS011;28667;50.758;6.096;2022-12-18T09:23:41;4.28;;;1.95;;
43042;SDS011;28667;50.758;6.096;2022-12-18T09:26:07;7.85;;;3.22;;
43042;SDS011;28667;50.758;6.096;2022-12-18T09:28:32;8.20;;;3.40;;
43042;SDS011;28667;50.758;6.096;2022-12-18T09:30:58;10.15;;;3.08;;
43042;SDS011;28667;50.758;6.096;2022-12-18T09:33:28;7.90;;;2.30;;
43042;SDS011;28667;50.758;6.096;2022-12-18T09:35:53;6.13;;;1.88;;
43042;SDS011;28667;50.758;6.096;2022-12-18T09:38:20;7.88;;;2.53;;
43042;SDS011;28667;50.758;6.096;2022-12-18T09:40:49;3.92;;;3.22;;
43042;SDS011;28667;50.758;6.096;2022-12-18T09:43:18;4.65;;;2.95;;
43042;SDS011;28667;50.758;6.096;2022-12-18T09:46:23;2.45;;;1.75;;
43042;SDS011;28667;50.758;6.096;2022-12-18T09:48:54;2.42;;;1.95;;
43042;SDS011;28667;50.758;6.096;2022-12-18T09:51:30;6.32;;;2.78;;
43042;SDS011;28667;50.758;6.096;2022-12-18T09:54:06;4.13;;;2.35;;
43042;SDS011;28667;50.758;6.096;2022-12-18T09:56:40;8.88;;;3.72;;
43042;SDS011;28667;50.758;6.096;2022-12-18T09:59:18;3.20;;;2.13;;
43042;SDS011;28667;50.758;6.096;2022-12-18T10:01:52;12.15;;;3.42;;
43042;SDS011;28667;50.758;6.096;2022-12-18T10:04:18;8.85;;;2.47;;
43042;SDS011;28667;50.758;6.096;2022-12-18T10:07:03;5.10;;;2.15;;
43042;SDS011;28667;50.758;6.096;2022-12-18T10:12:19;12.70;;;4.60;;
43042;SDS011;28667;50.758;6.096;2022-12-18T10:20:47;7.80;;;4.10;;
43042;SDS011;28667;50.758;6.096;2022-12-18T10:28:22;5.57;;;2.67;;
43042;SDS011;28667;50.758;6.096;2022-12-18T10:30:49;7.13;;;3.75;;
43042;SDS011;28667;50.758;6.096;2022-12-18T10:33:20;7.57;;;3.45;;
43042;SDS011;28667;50.758;6.096;2022-12-18T10:35:48;6.75;;;3.55;;
43042;SDS011;28667;50.758;6.096;2022-12-18T10:41:06;6.82;;;3.63;;
43042;SDS011;28667;50.758;6.096;2022-12-18T10:43:42;5.97;;;3.25;;
43042;SDS011;28667;50.758;6.096;2022-12-18T10:48:55;9.73;;;3.63;;
43042;SDS011;28667;50.758;6.096;2022-12-18T10:51:25;8.40;;;3.80;;
43042;SDS011;28667;50.758;6.096;2022-12-18T10:53:55;10.52;;;3.45;;
43042;SDS011;28667;50.758;6.096;2022-12-18T10:56:23;4.38;;;3.13;;
43042;SDS011;28667;50.758;6.096;2022-12-18T10:58:59;4.72;;;3.13;;
43042;SDS011;28667;50.758;6.096;2022-12-18T11:04:15;7.38;;;4.40;;
43042;SDS011;28667;50.758;6.096;2022-12-18T11:07:00;9.73;;;4.15;;
43042;SDS011;28667;50.758;6.096;2022-12-18T11:09:28;11.70;;;3.92;;
43042;SDS011;28667;50.758;6.096;2022-12-18T11:12:00;6.65;;;3.33;;
43042;SDS011;28667;50.758;6.096;2022-12-18T11:14:29;12.25;;;5.75;;
43042;SDS011;28667;50.758;6.096;2022-12-18T11:19:43;9.60;;;4.45;;
43042;SDS011;28667;50.758;6.096;2022-12-18T11:27:29;10.98;;;4.93;;
43042;SDS011;28667;50.758;6.096;2022-12-18T11:32:47;10.85;;;4.93;;
43042;SDS011;28667;50.758;6.096;2022-12-18T11:35:25;10.88;;;4.70;;
43042;SDS011;28667;50.758;6.096;2022-12-18T11:37:54;9.43;;;4.20;;
43042;SDS011;28667;50.758;6.096;2022-12-18T11:40:33;7.38;;;4.38;;
43042;SDS011;28667;50.758;6.096;2022-12-18T11:45:48;8.95;;;4.45;;
43042;SDS011;28667;50.758;6.096;2022-12-18T11:49:01;9.80;;;4.75;;
43042;SDS011;28667;50.758;6.096;2022-12-18T11:51:11;12.93;;;5.45;;
43042;SDS011;28667;50.758;6.096;2022-12-18T11:53:45;10.85;;;6.45;;
43042;SDS011;28667;50.758;6.096;2022-12-18T11:56:17;12.23;;;5.90;;
43042;SDS011;28667;50.758;6.096;2022-12-18T12:07:44;8.40;;;4.68;;
43042;SDS011;28667;50.758;6.096;2022-12-18T12:10:46;15.95;;;5.22;;
43042;SDS011;28667;50.758;6.096;2022-12-18T12:16:13;14.98;;;6.07;;
43042;SDS011;28667;50.758;6.096;2022-12-18T12:27:05;10.95;;;5.22;;
43042;SDS011;28667;50.758;6.096;2022-12-18T12:29:42;11.00;;;5.05;;
43042;SDS011;28667;50.758;6.096;2022-12-18T12:32:37;16.00;;;6.30;;
43042;SDS011;28667;50.758;6.096;2022-12-18T12:41:05;11.82;;;5.82;;
43042;SDS011;28667;50.758;6.096;2022-12-18T12:43:55;10.90;;;5.70;;
43042;SDS011;28667;50.758;6.096;2022-12-18T12:46:23;10.40;;;5.38;;
43042;SDS011;28667;50.758;6.096;2022-12-18T12:48:52;11.40;;;4.72;;
43042;SDS011;28667;50.758;6.096;2022-12-18T12:51:28;11.02;;;4.55;;
43042;SDS011;28667;50.758;6.096;2022-12-18T12:53:59;11.50;;;5.07;;
43042;SDS011;28667;50.758;6.096;2022-12-18T12:56:30;14.43;;;5.80;;
43042;SDS011;28667;50.758;6.096;2022-12-18T12:59:27;10.63;;;6.22;;
43042;SDS011;28667;50.758;6.096;2022-12-18T13:02:22;17.23;;;5.45;;
43042;SDS011;28667;50.758;6.096;2022-12-18T13:05:07;15.90;;;6.53;;
43042;SDS011;28667;50.758;6.096;2022-12-18T13:07:54;13.25;;;5.90;;
43042;SDS011;28667;50.758;6.096;2022-12-18T13:10:28;15.23;;;6.53;;
43042;SDS011;28667;50.758;6.096;2022-12-18T13:13:13;15.98;;;6.88;;
43042;SDS011;28667;50.758;6.096;2022-12-18T13:25:56;10.57;;;6.15;;
43042;SDS011;28667;50.758;6.096;2022-12-18T13:34:27;21.30;;;8.20;;
43042;SDS011;28667;50.758;6.096;2022-12-18T13:46:06;18.58;;;8.52;;
43042;SDS011;28667;50.758;6.096;2022-12-18T13:48:50;22.88;;;8.95;;
43042;SDS011;28667;50.758;6.096;2022-12-18T13:51:28;19.70;;;7.40;;
43042;SDS011;28667;50.758;6.096;2022-12-18T13:54:00;16.50;;;7.25;;
43042;SDS011;28667;50.758;6.096;2022-12-18T13:56:32;18.45;;;8.27;;
43042;SDS011;28667;50.758;6.096;2022-12-18T14:01:41;17.05;;;7.28;;
43042;SDS011;28667;50.758;6.096;2022-12-18T14:04:16;19.55;;;8.63;;
43042;SDS011;28667;50.758;6.096;2022-12-18T14:06:45;14.48;;;7.57;;
43042;SDS011;28667;50.758;6.096;2022-12-18T14:09:13;19.10;;;8.15;;
43042;SDS011;28667;50.758;6.096;2022-12-18T14:11:43;14.88;;;7.65;;
43042;SDS011;28667;50.758;6.096;2022-12-18T14:14:13;26.15;;;8.55;;
43042;SDS011;28667;50.758;6.096;2022-12-18T14:16:41;17.83;;;7.93;;
43042;SDS011;28667;50.758;6.096;2022-12-18T14:19:14;22.25;;;8.73;;
43042;SDS011;28667;50.758;6.096;2022-12-18T14:21:47;17.83;;;7.72;;
43042;SDS011;28667;50.758;6.096;2022-12-18T14:24:16;19.05;;;7.53;;
43042;SDS011;28667;50.758;6.096;2022-12-18T14:26:44;17.25;;;6.65;;
43042;SDS011;28667;50.758;6.096;2022-12-18T14:31:46;16.35;;;6.40;;
43042;SDS011;28667;50.758;6.096;2022-12-18T14:34:37;18.00;;;7.35;;
43042;SDS011;28667;50.758;6.096;2022-12-18T14:37:03;16.02;;;7.07;;
43042;SDS011;28667;50.758;6.096;2022-12-18T14:39:29;16.45;;;6.22;;
43042;SDS011;28667;50.758;6.096;2022-12-18T14:41:55;15.98;;;6.45;;
43042;SDS011;28667;50.758;6.096;2022-12-18T14:44:21;16.65;;;6.75;;
43042;SDS011;28667;50.758;6.096;2022-12-18T14:46:48;12.30;;;6.88;;
43042;SDS011;28667;50.758;6.096;2022-12-18T14:49:23;17.75;;;9.07;;
43042;SDS011;28667;50.758;6.096;2022-12-18T14:51:54;22.58;;;10.55;;
43042;SDS011;28667;50.758;6.096;2022-12-18T14:54:25;23.70;;;11.02;;
43042;SDS011;28667;50.758;6.096;2022-12-18T14:59:38;21.33;;;9.98;;
43042;SDS011;28667;50.758;6.096;2022-12-18T15:04:47;22.00;;;9.90;;
43042;SDS011;28667;50.758;6.096;2022-12-18T15:09:42;23.67;;;8.73;;
43042;SDS011;28667;50.758;6.096;2022-12-18T15:15:01;14.80;;;8.20;;
43042;SDS011;28667;50.758;6.096;2022-12-18T15:17:28;19.98;;;7.78;;
43042;SDS011;28667;50.758;6.096;2022-12-18T15:20:01;18.83;;;6.88;;
43042;SDS011;28667;50.758;6.096;2022-12-18T15:22:34;17.90;;;7.60;;
43042;SDS011;28667;50.758;6.096;2022-12-18T15:25:01;19.90;;;7.40;;
43042;SDS011;28667;50.758;6.096;2022-12-18T15:32:38;16.27;;;4.63;;
43042;SDS011;28667;50.758;6.096;2022-12-18T15:35:16;10.80;;;5.00;;
43042;SDS011;28667;50.758;6.096;2022-12-18T15:37:50;11.50;;;4.63;;
43042;SDS011;28667;50.758;6.096;2022-12-18T15:40:20;7.68;;;3.70;;
43042;SDS011;28667;50.758;6.096;2022-12-18T15:42:50;7.93;;;3.97;;
43042;SDS011;28667;50.758;6.096;2022-12-18T15:45:37;8.52;;;3.97;;
43042;SDS011;28667;50.758;6.096;2022-12-18T15:48:21;6.88;;;3.08;;
43042;SDS011;28667;50.758;6.096;2022-12-18T15:50:48;3.72;;;2.70;;
43042;SDS011;28667;50.758;6.096;2022-12-18T15:53:18;5.60;;;3.15;;
43042;SDS011;28667;50.758;6.096;2022-12-18T15:55:44;5.22;;;3.03;;
43042;SDS011;28667;50.758;6.096;2022-12-18T15:58:28;6.32;;;2.90;;
43042;SDS011;28667;50.758;6.096;2022-12-18T16:00:54;7.00;;;2.85;;
43042;SDS011;28667;50.758;6.096;2022-12-18T16:03:23;3.33;;;1.98;;
43042;SDS011;28667;50.758;6.096;2022-12-18T16:05:49;6.32;;;3.00;;
43042;SDS011;28667;50.758;6.096;2022-12-18T16:08:14;6.05;;;2.47;;
43042;SDS011;28667;50.758;6.096;2022-12-18T16:10:40;5.82;;;2.55;;
43042;SDS011;28667;50.758;6.096;2022-12-18T16:13:09;7.47;;;3.00;;
43042;SDS011;28667;50.758;6.096;2022-12-18T16:15:35;6.85;;;2.70;;
43042;SDS011;28667;50.758;6.096;2022-12-18T16:18:01;5.85;;;2.20;;
43042;SDS011;28667;50.758;6.096;2022-12-18T16:20:27;6.20;;;2.92;;
43042;SDS011;28667;50.758;6.096;2022-12-18T16:22:53;9.35;;;3.05;;
43042;SDS011;28667;50.758;6.096;2022-12-18T16:25:22;7.60;;;3.55;;
43042;SDS011;28667;50.758;6.096;2022-12-18T16:27:51;8.02;;;4.25;;
43042;SDS011;28667;50.758;6.096;2022-12-18T16:30:20;9.90;;;4.78;;
43042;SDS011;28667;50.758;6.096;2022-12-18T16:32:48;11.30;;;4.70;;
43042;SDS011;28667;50.758;6.096;2022-12-18T16:35:15;6.95;;;3.30;;
43042;SDS011;28667;50.758;6.096;2022-12-18T16:37:41;5.50;;;3.83;;
43042;SDS011;28667;50.758;6.096;2022-12-18T16:40:09;6.90;;;3.53;;
43042;SDS011;28667;50.758;6.096;2022-12-18T16:42:37;6.50;;;3.17;;
43042;SDS011;28667;50.758;6.096;2022-12-18T16:45:04;6.00;;;3.20;;
43042;SDS011;28667;50.758;6.096;2022-12-18T16:47:32;10.75;;;3.42;;
43042;SDS011;28667;50.758;6.096;2022-12-18T16:49:58;5.32;;;3.05;;
43042;SDS011;28667;50.758;6.096;2022-12-18T16:52:24;8.38;;;3.38;;
43042;SDS011;28667;50.758;6.096;2022-12-18T16:54:50;6.10;;;4.28;;
43042;SDS011;28667;50.758;6.096;2022-12-18T16:57:17;5.72;;;2.67;;
43042;SDS011;28667;50.758;6.096;2022-12-18T16:59:44;9.80;;;3.22;;
43042;SDS011;28667;50.758;6.096;2022-12-18T17:02:17;6.22;;;4.57;;
43042;SDS011;28667;50.758;6.096;2022-12-18T17:04:44;9.63;;;4.53;;
43042;SDS011;28667;50.758;6.096;2022-12-18T17:07:10;6.40;;;3.40;;
43042;SDS011;28667;50.758;6.096;2022-12-18T17:09:37;7.40;;;3.92;;
43042;SDS011;28667;50.758;6.096;2022-12-18T17:12:03;6.82;;;3.35;;
43042;SDS011;28667;50.758;6.096;2022-12-18T17:14:29;8.85;;;3.75;;
43042;SDS011;28667;50.758;6.096;2022-12-18T17:16:56;5.47;;;3.13;;
43042;SDS011;28667;50.758;6.096;2022-12-18T17:19:25;6.55;;;2.63;;
43042;SDS011;28667;50.758;6.096;2022-12-18T17:21:51;5.82;;;2.67;;